createdAt,value
2022-07-25T00:01:49.759Z,26.12
2022-07-25T00:04:18.069Z,26.03
2022-07-25T00:06:46.049Z,26.25
2022-07-25T00:09:13.176Z,25.79
2022-07-25T00:11:40.573Z,26.06
2022-07-25T00:14:08.092Z,26.25
2022-07-25T00:16:35.637Z,25.79
2022-07-25T00:19:03.254Z,26.10
2022-07-25T00:21:30.365Z,26.21
2022-07-25T00:23:57.470Z,26.25
2022-07-25T00:26:24.911Z,26.01
2022-07-25T00:28:52.041Z,26.08
2022-07-25T00:31:19.281Z,26.09
2022-07-25T00:33:46.724Z,25.82
2022-07-25T00:36:13.823Z,25.93
2022-07-25T00:38:40.934Z,26.10
2022-07-25T00:41:08.376Z,25.85
2022-07-25T00:43:35.486Z,25.81
2022-07-25T00:46:02.606Z,25.84
2022-07-25T00:48:30.334Z,25.80
2022-07-25T00:50:57.500Z,25.62
2022-07-25T00:53:24.722Z,25.48
2022-07-25T00:55:52.137Z,25.59
2022-07-25T00:58:19.350Z,25.42
2022-07-25T01:00:46.788Z,25.63
2022-07-25T01:03:14.229Z,25.86
2022-07-25T01:05:41.401Z,25.87
2022-07-25T01:08:08.974Z,25.58
2022-07-25T01:10:36.489Z,25.42
2022-07-25T01:13:03.648Z,25.46
2022-07-25T01:15:30.852Z,25.69
2022-07-25T01:17:58.218Z,25.56
2022-07-25T01:20:27.225Z,25.50
2022-07-25T01:22:54.393Z,25.68
2022-07-25T01:25:21.808Z,25.41
2022-07-25T01:27:54.654Z,25.55
2022-07-25T01:30:22.505Z,25.01
2022-07-25T01:32:49.645Z,25.42
2022-07-25T01:35:16.792Z,25.29
2022-07-25T01:37:45.791Z,25.47
2022-07-25T01:40:13.693Z,25.01
2022-07-25T01:42:41.021Z,25.33
2022-07-25T01:45:08.562Z,25.24
2022-07-25T01:47:35.696Z,24.94
2022-07-25T01:50:02.827Z,24.86
2022-07-25T01:52:30.226Z,25.11
2022-07-25T01:54:57.326Z,25.32
2022-07-25T01:57:25.000Z,24.97
2022-07-25T01:59:58.707Z,25.11
2022-07-25T02:02:26.147Z,25.08
2022-07-25T02:04:53.634Z,25.17
2022-07-25T02:07:20.798Z,25.20
2022-07-25T02:09:48.785Z,25.15
2022-07-25T02:12:18.434Z,25.01
2022-07-25T02:14:45.585Z,25.18
2022-07-25T02:17:12.768Z,25.22
2022-07-25T02:19:40.202Z,24.94
2022-07-25T02:22:07.445Z,24.87
2022-07-25T02:24:34.586Z,25.00
2022-07-25T02:27:01.937Z,24.74
2022-07-25T02:29:29.110Z,24.52
2022-07-25T02:31:56.235Z,24.93
2022-07-25T02:34:23.663Z,24.98
2022-07-25T02:36:50.752Z,24.82
2022-07-25T02:39:17.874Z,25.07
2022-07-25T02:41:45.253Z,25.14
2022-07-25T02:44:12.407Z,25.10
2022-07-25T02:46:39.502Z,24.74
2022-07-25T02:49:06.967Z,24.72
2022-07-25T02:51:34.119Z,24.68
2022-07-25T02:54:01.238Z,24.82
2022-07-25T02:56:30.135Z,24.92
2022-07-25T02:58:57.593Z,24.87
2022-07-25T03:01:24.857Z,24.44
2022-07-25T03:03:52.721Z,24.82
2022-07-25T03:06:19.954Z,24.56
2022-07-25T03:08:47.066Z,24.53
2022-07-25T03:11:14.478Z,24.14
2022-07-25T03:13:41.582Z,24.41
2022-07-25T03:16:09.778Z,24.47
2022-07-25T03:18:37.241Z,24.42
2022-07-25T03:21:04.463Z,23.90
2022-07-25T03:23:31.642Z,23.81
2022-07-25T03:25:59.002Z,23.58
2022-07-25T03:28:26.179Z,23.82
2022-07-25T03:30:53.294Z,23.69
2022-07-25T03:33:20.699Z,23.74
2022-07-25T03:35:47.842Z,24.04
2022-07-25T03:38:14.978Z,24.09
2022-07-25T03:40:42.368Z,23.82
2022-07-25T03:43:09.466Z,23.42
2022-07-25T03:45:36.684Z,23.59
2022-07-25T03:48:04.114Z,23.79
2022-07-25T03:50:31.307Z,24.07
2022-07-25T03:52:58.422Z,24.11
2022-07-25T03:55:25.806Z,23.84
2022-07-25T03:57:52.912Z,23.94
2022-07-25T04:00:20.045Z,24.07
2022-07-25T04:02:47.575Z,24.33
2022-07-25T04:05:14.722Z,24.37
2022-07-25T04:07:41.860Z,24.37
2022-07-25T04:10:09.538Z,24.31
2022-07-25T04:12:37.385Z,24.15
2022-07-25T04:15:04.789Z,24.66
2022-07-25T04:17:32.245Z,24.74
2022-07-25T04:19:59.830Z,24.84
2022-07-25T04:22:27.026Z,24.60
2022-07-25T04:24:54.393Z,23.91
2022-07-25T04:27:21.486Z,23.95
2022-07-25T04:29:48.620Z,24.57
2022-07-25T04:32:21.417Z,24.97
2022-07-25T04:34:52.292Z,24.88
2022-07-25T04:37:19.718Z,25.23
2022-07-25T04:39:46.849Z,25.34
2022-07-25T04:42:13.996Z,25.39
2022-07-25T04:44:41.375Z,25.01
2022-07-25T04:47:08.481Z,25.75
2022-07-25T04:49:35.573Z,25.80
2022-07-25T04:52:02.971Z,25.97
2022-07-25T04:54:30.092Z,25.84
2022-07-25T04:56:58.818Z,26.63
2022-07-25T04:59:26.201Z,27.53
2022-07-25T05:01:53.389Z,27.72
2022-07-25T05:04:20.534Z,28.76
2022-07-25T05:06:47.938Z,30.04
2022-07-25T05:09:15.086Z,31.40
2022-07-25T05:11:47.313Z,32.71
2022-07-25T05:14:16.138Z,33.82
2022-07-25T05:16:43.316Z,35.19
2022-07-25T05:19:10.508Z,36.11
2022-07-25T05:21:38.306Z,36.81
2022-07-25T05:24:05.732Z,37.45
2022-07-25T05:26:33.126Z,38.65
2022-07-25T05:29:00.579Z,39.53
2022-07-25T05:31:27.776Z,40.15
2022-07-25T05:33:54.914Z,40.91
2022-07-25T05:36:22.306Z,39.71
2022-07-25T05:38:49.443Z,40.76
2022-07-25T05:41:16.590Z,41.55
2022-07-25T05:43:46.146Z,39.09
2022-07-25T05:46:13.310Z,39.97
2022-07-25T05:48:40.830Z,40.98
2022-07-25T05:51:08.245Z,39.47
2022-07-25T05:53:35.441Z,41.54
2022-07-25T05:56:02.598Z,41.21
2022-07-25T05:58:30.291Z,41.66
2022-07-25T06:00:57.932Z,41.89
2022-07-25T06:03:25.369Z,41.07
2022-07-25T06:05:52.674Z,42.64
2022-07-25T06:08:19.821Z,42.87
2022-07-25T06:10:49.932Z,41.91
2022-07-25T06:13:17.099Z,43.47
2022-07-25T06:15:47.851Z,43.75
2022-07-25T06:18:15.597Z,43.49
2022-07-25T06:20:42.712Z,44.44
2022-07-25T06:23:09.854Z,44.37
2022-07-25T06:25:37.238Z,43.44
2022-07-25T06:28:04.506Z,44.62
2022-07-25T06:30:31.640Z,44.60
2022-07-25T06:32:59.011Z,46.12
2022-07-25T06:35:26.163Z,44.54
2022-07-25T06:37:53.274Z,45.20
2022-07-25T06:40:20.671Z,46.53
2022-07-25T06:42:47.851Z,46.35
2022-07-25T06:45:15.128Z,46.81
2022-07-25T06:47:43.005Z,47.38
2022-07-25T06:50:11.724Z,47.39
2022-07-25T06:52:39.150Z,47.88
2022-07-25T06:55:06.960Z,48.17
2022-07-25T06:57:34.158Z,44.89
2022-07-25T07:00:01.311Z,41.32
2022-07-25T07:02:28.684Z,40.99
2022-07-25T07:04:55.808Z,43.13
2022-07-25T07:07:23.041Z,38.56
2022-07-25T07:09:50.411Z,42.13
2022-07-25T07:12:17.518Z,43.96
2022-07-25T07:14:45.274Z,45.12
2022-07-25T07:17:12.670Z,45.57
2022-07-25T07:19:44.389Z,46.38
2022-07-25T07:22:11.590Z,47.46
2022-07-25T07:24:44.143Z,48.12
2022-07-25T07:27:12.321Z,46.40
2022-07-25T07:29:39.438Z,46.80
2022-07-25T07:32:07.110Z,46.26
2022-07-25T07:34:34.344Z,47.17
2022-07-25T07:37:02.494Z,48.09
2022-07-25T07:39:29.894Z,48.63
2022-07-25T07:41:57.027Z,47.35
2022-07-25T07:44:24.129Z,48.00
2022-07-25T07:46:51.529Z,48.14
2022-07-25T07:49:18.831Z,48.22
2022-07-25T07:51:46.014Z,48.47
2022-07-25T07:54:32.253Z,48.44
2022-07-25T07:56:59.384Z,48.66
2022-07-25T07:59:26.769Z,48.92
2022-07-25T08:01:54.039Z,48.34
2022-07-25T08:04:21.466Z,48.45
2022-07-25T08:06:48.568Z,49.73
2022-07-25T08:09:15.669Z,49.12
2022-07-25T08:11:43.121Z,48.24
2022-07-25T08:14:10.565Z,48.58
2022-07-25T08:16:37.944Z,48.64
2022-07-25T08:19:05.377Z,49.24
2022-07-25T08:21:32.510Z,50.02
2022-07-25T08:24:00.137Z,49.02
2022-07-25T08:26:27.974Z,48.67
2022-07-25T08:29:17.500Z,49.26
2022-07-25T08:31:43.156Z,50.70
2022-07-25T08:34:10.504Z,50.06
2022-07-25T08:36:38.169Z,47.04
2022-07-25T08:39:05.629Z,47.84
2022-07-25T08:41:33.364Z,49.67
2022-07-25T08:44:00.926Z,49.12
2022-07-25T08:46:30.148Z,46.27
2022-07-25T08:48:57.487Z,48.43
2022-07-25T08:51:24.655Z,50.57
2022-07-25T08:53:52.021Z,49.63
2022-07-25T08:56:21.357Z,48.86
2022-07-25T08:58:49.673Z,48.63
2022-07-25T09:01:17.197Z,49.61
2022-07-25T09:03:44.378Z,49.48
2022-07-25T09:06:15.532Z,48.47
2022-07-25T09:08:52.001Z,50.35
2022-07-25T09:11:28.977Z,48.88
2022-07-25T09:14:15.173Z,49.42
2022-07-25T09:16:44.250Z,48.72
2022-07-25T09:19:12.847Z,48.33
2022-07-25T09:21:40.239Z,49.72
2022-07-25T09:24:08.240Z,49.26
2022-07-25T09:26:44.909Z,50.26
2022-07-25T09:29:24.886Z,49.65
2022-07-25T09:31:52.801Z,51.22
2022-07-25T09:34:36.239Z,48.81
2022-07-25T09:37:10.213Z,48.68
2022-07-25T09:39:45.452Z,48.92
2022-07-25T09:42:32.969Z,49.67
2022-07-25T09:45:12.444Z,49.23
2022-07-25T09:47:54.910Z,47.22
2022-07-25T09:50:22.421Z,46.63
2022-07-25T09:52:50.415Z,47.12
2022-07-25T09:55:17.681Z,47.97
2022-07-25T09:57:48.977Z,48.43
2022-07-25T10:00:20.012Z,47.83
2022-07-25T10:02:50.220Z,48.59
2022-07-25T10:05:20.592Z,47.75
2022-07-25T10:07:49.499Z,48.50
2022-07-25T10:10:30.389Z,46.42
2022-07-25T10:12:58.933Z,47.78
2022-07-25T10:15:26.032Z,48.14
2022-07-25T10:18:01.999Z,48.21
2022-07-25T10:20:29.436Z,49.45
2022-07-25T10:22:57.553Z,47.32
2022-07-25T10:25:25.278Z,48.60
2022-07-25T10:27:59.854Z,48.26
2022-07-25T10:30:27.683Z,46.07
2022-07-25T10:32:58.562Z,46.55
2022-07-25T10:35:26.474Z,47.86
2022-07-25T10:37:54.135Z,47.84
2022-07-25T10:40:27.337Z,48.12
2022-07-25T10:42:58.205Z,48.66
2022-07-25T10:45:26.709Z,47.87
2022-07-25T10:47:54.186Z,48.31
2022-07-25T10:50:39.980Z,48.26
2022-07-25T10:53:09.233Z,48.37
2022-07-25T10:55:37.000Z,46.80
2022-07-25T10:58:22.181Z,42.38
2022-07-25T11:00:51.339Z,42.81
2022-07-25T11:03:18.958Z,42.20
2022-07-25T11:05:46.685Z,41.27
2022-07-25T11:08:22.643Z,40.99
2022-07-25T11:10:53.494Z,38.92
2022-07-25T11:13:21.166Z,36.91
2022-07-25T11:15:48.486Z,37.33
2022-07-25T11:18:15.668Z,36.98
2022-07-25T11:20:43.038Z,35.51
2022-07-25T11:23:10.125Z,34.94
2022-07-25T11:25:37.480Z,35.60
2022-07-25T11:28:04.934Z,34.83
2022-07-25T11:30:32.458Z,35.51
2022-07-25T11:33:01.387Z,34.92
2022-07-25T11:35:30.038Z,35.35
2022-07-25T11:37:57.411Z,34.33
2022-07-25T11:40:25.778Z,34.53
2022-07-25T11:42:54.123Z,34.01
2022-07-25T11:45:23.715Z,34.53
2022-07-25T11:48:01.694Z,34.45
2022-07-25T11:50:29.609Z,34.39
2022-07-25T11:53:03.568Z,34.85
2022-07-25T11:55:36.444Z,35.02
2022-07-25T11:58:04.094Z,34.75
2022-07-25T12:00:33.637Z,35.23
2022-07-25T12:03:13.055Z,33.83
2022-07-25T12:05:44.324Z,32.61
2022-07-25T12:08:19.086Z,33.72
2022-07-25T12:10:51.179Z,32.95
2022-07-25T12:13:22.244Z,33.15
2022-07-25T12:15:49.360Z,33.36
2022-07-25T12:18:16.465Z,33.39
2022-07-25T12:20:43.974Z,33.83
2022-07-25T12:23:11.572Z,33.56
2022-07-25T12:25:39.483Z,33.61
2022-07-25T12:28:07.196Z,33.76
2022-07-25T12:30:34.396Z,33.93
2022-07-25T12:33:01.582Z,33.63
2022-07-25T12:35:29.088Z,34.06
2022-07-25T12:37:56.234Z,34.31
2022-07-25T12:40:24.075Z,34.31
2022-07-25T12:42:51.587Z,34.24
2022-07-25T12:45:18.734Z,34.55
2022-07-25T12:47:46.213Z,34.80
2022-07-25T12:50:13.814Z,34.98
2022-07-25T12:52:41.335Z,35.08
2022-07-25T12:55:09.403Z,34.94
2022-07-25T12:57:36.892Z,34.76
2022-07-25T13:00:04.729Z,34.75
2022-07-25T13:02:31.928Z,33.45
2022-07-25T13:04:59.405Z,33.70
2022-07-25T13:07:26.558Z,33.89
2022-07-25T13:09:54.293Z,34.07
2022-07-25T13:12:23.569Z,33.83
2022-07-25T13:14:50.892Z,34.26
2022-07-25T13:17:18.014Z,34.17
2022-07-25T13:19:45.498Z,34.38
2022-07-25T13:22:12.685Z,34.28
2022-07-25T13:24:40.020Z,34.47
2022-07-25T13:27:07.468Z,34.45
2022-07-25T13:29:34.602Z,34.55
2022-07-25T13:32:01.988Z,33.81
2022-07-25T13:34:29.744Z,33.68
2022-07-25T13:36:56.902Z,34.16
2022-07-25T13:39:24.160Z,33.66
2022-07-25T13:41:51.605Z,33.64
2022-07-25T13:44:18.846Z,34.11
2022-07-25T13:46:49.819Z,33.73
2022-07-25T13:49:17.792Z,34.32
2022-07-25T13:51:45.612Z,34.48
2022-07-25T13:54:12.814Z,34.51
2022-07-25T13:56:41.489Z,34.10
2022-07-25T13:59:09.052Z,33.70
2022-07-25T14:01:36.355Z,33.92
2022-07-25T14:04:03.799Z,34.12
2022-07-25T14:06:30.910Z,34.25
2022-07-25T14:08:58.014Z,34.10
2022-07-25T14:11:30.367Z,33.84
2022-07-25T14:13:58.074Z,34.32
2022-07-25T14:16:25.433Z,34.31
2022-07-25T14:18:54.035Z,34.23
2022-07-25T14:21:21.168Z,34.53
2022-07-25T14:23:48.706Z,34.55
2022-07-25T14:26:15.862Z,34.58
2022-07-25T14:28:43.605Z,34.78
2022-07-25T14:31:11.490Z,34.88
2022-07-25T14:33:40.136Z,34.38
2022-07-25T14:36:10.203Z,34.82
2022-07-25T14:38:37.580Z,34.58
2022-07-25T14:41:10.475Z,34.39
2022-07-25T14:43:40.514Z,34.24
2022-07-25T14:46:08.328Z,34.47
2022-07-25T14:48:35.861Z,34.51
2022-07-25T14:51:03.403Z,34.21
2022-07-25T14:53:30.540Z,33.91
2022-07-25T14:55:57.657Z,33.62
2022-07-25T14:58:25.102Z,34.23
2022-07-25T15:00:52.318Z,34.60
2022-07-25T15:03:19.626Z,34.54
2022-07-25T15:05:47.023Z,34.42
2022-07-25T15:08:14.383Z,34.52
2022-07-25T15:10:41.526Z,34.47
2022-07-25T15:13:30.096Z,34.22
2022-07-25T15:15:56.252Z,34.53
2022-07-25T15:18:23.735Z,33.52
2022-07-25T15:20:51.856Z,33.29
2022-07-25T15:23:20.898Z,33.27
2022-07-25T15:26:04.455Z,33.14
2022-07-25T15:28:35.157Z,33.80
2022-07-25T15:31:02.715Z,34.29
2022-07-25T15:33:29.972Z,34.47
2022-07-25T15:35:57.101Z,34.76
2022-07-25T15:38:24.608Z,34.82
2022-07-25T15:40:51.724Z,34.71
2022-07-25T15:43:18.870Z,35.02
2022-07-25T15:45:46.320Z,34.54
2022-07-25T15:48:13.679Z,34.81
2022-07-25T15:50:42.595Z,34.91
2022-07-25T15:53:09.948Z,34.46
2022-07-25T15:55:37.296Z,34.73
2022-07-25T15:58:04.505Z,34.75
2022-07-25T16:00:31.904Z,34.91
2022-07-25T16:02:59.362Z,34.86
2022-07-25T16:05:26.469Z,34.43
2022-07-25T16:07:53.594Z,34.59
2022-07-25T16:10:20.995Z,34.68
2022-07-25T16:12:48.106Z,34.65
2022-07-25T16:15:16.107Z,34.80
2022-07-25T16:17:43.494Z,34.76
2022-07-25T16:20:11.566Z,34.24
2022-07-25T16:22:39.486Z,34.46
2022-07-25T16:25:06.999Z,34.53
2022-07-25T16:27:34.189Z,34.35
2022-07-25T16:30:01.489Z,34.55
2022-07-25T16:32:31.718Z,34.69
2022-07-25T16:34:58.854Z,34.36
2022-07-25T16:37:25.977Z,34.38
2022-07-25T16:39:53.438Z,34.00
2022-07-25T16:42:20.550Z,33.96
2022-07-25T16:44:48.562Z,34.22
2022-07-25T16:47:15.944Z,34.14
2022-07-25T16:49:43.081Z,34.17
2022-07-25T16:52:10.262Z,34.38
2022-07-25T16:54:37.795Z,34.03
2022-07-25T16:57:04.947Z,33.93
2022-07-25T16:59:32.051Z,33.84
2022-07-25T17:01:59.546Z,34.03
2022-07-25T17:04:27.236Z,33.93
2022-07-25T17:06:55.322Z,34.11
2022-07-25T17:09:23.207Z,34.14
2022-07-25T17:11:50.313Z,33.84
2022-07-25T17:14:17.471Z,33.89
2022-07-25T17:16:45.302Z,33.88
2022-07-25T17:19:12.460Z,33.94
2022-07-25T17:21:39.577Z,33.70
2022-07-25T17:24:07.206Z,33.65
2022-07-25T17:26:34.986Z,33.70
2022-07-25T17:29:02.116Z,33.59
2022-07-25T17:31:29.552Z,33.43
2022-07-25T17:33:56.753Z,33.57
2022-07-25T17:36:23.894Z,33.17
2022-07-25T17:38:51.283Z,33.41
2022-07-25T17:41:18.388Z,33.43
2022-07-25T17:43:45.482Z,33.33
2022-07-25T17:46:13.880Z,33.17
2022-07-25T17:48:41.160Z,33.18
2022-07-25T17:51:08.441Z,33.26
2022-07-25T17:53:35.845Z,32.78
2022-07-25T17:56:03.367Z,32.82
2022-07-25T17:58:31.409Z,32.69
2022-07-25T18:01:01.313Z,32.70
2022-07-25T18:03:29.586Z,32.47
2022-07-25T18:05:57.475Z,32.51
2022-07-25T18:08:24.594Z,32.52
2022-07-25T18:10:51.940Z,32.47
2022-07-25T18:13:19.098Z,32.41
2022-07-25T18:15:46.551Z,32.33
2022-07-25T18:18:18.472Z,32.28
2022-07-25T18:20:47.767Z,32.30
2022-07-25T18:23:15.163Z,31.96
2022-07-25T18:25:43.858Z,32.01
2022-07-25T18:28:11.638Z,31.72
2022-07-25T18:30:39.204Z,31.69
2022-07-25T18:33:07.355Z,31.64
2022-07-25T18:35:34.526Z,31.34
2022-07-25T18:38:01.928Z,31.55
2022-07-25T18:40:29.068Z,31.32
2022-07-25T18:42:56.191Z,31.09
2022-07-25T18:45:24.078Z,31.28
2022-07-25T18:47:52.102Z,31.16
2022-07-25T18:50:21.791Z,31.11
2022-07-25T18:52:49.214Z,31.02
2022-07-25T18:55:16.405Z,30.99
2022-07-25T18:57:44.794Z,30.88
2022-07-25T19:00:12.200Z,30.76
2022-07-25T19:02:39.350Z,30.70
2022-07-25T19:05:06.932Z,30.63
2022-07-25T19:07:34.691Z,30.46
2022-07-25T19:10:02.041Z,30.38
2022-07-25T19:12:29.168Z,30.44
2022-07-25T19:14:56.601Z,30.05
2022-07-25T19:17:24.057Z,29.96
2022-07-25T19:19:51.652Z,30.08
2022-07-25T19:22:19.429Z,30.29
2022-07-25T19:24:46.621Z,30.14
2022-07-25T19:27:14.824Z,30.15
2022-07-25T19:29:42.417Z,30.11
2022-07-25T19:32:09.598Z,30.06
2022-07-25T19:34:36.709Z,30.07
2022-07-25T19:37:04.116Z,30.05
2022-07-25T19:39:31.232Z,29.84
2022-07-25T19:41:58.341Z,29.68
2022-07-25T19:44:25.745Z,29.76
2022-07-25T19:46:54.229Z,29.73
2022-07-25T19:49:21.488Z,29.32
2022-07-25T19:51:49.022Z,29.48
2022-07-25T19:54:17.143Z,29.59
2022-07-25T19:56:44.277Z,29.53
2022-07-25T19:59:11.702Z,29.62
2022-07-25T20:01:39.405Z,29.68
2022-07-25T20:04:08.901Z,29.72
2022-07-25T20:06:36.596Z,29.68
2022-07-25T20:09:04.079Z,29.67
2022-07-25T20:11:31.669Z,29.54
2022-07-25T20:13:58.796Z,29.43
2022-07-25T20:16:25.996Z,29.19
2022-07-25T20:18:53.430Z,28.63
2022-07-25T20:21:20.585Z,28.64
2022-07-25T20:23:47.673Z,29.03
2022-07-25T20:26:15.048Z,28.95
2022-07-25T20:28:42.225Z,28.65
2022-07-25T20:31:09.387Z,28.33
2022-07-25T20:33:36.839Z,28.26
2022-07-25T20:36:04.190Z,28.53
2022-07-25T20:38:32.383Z,28.62
2022-07-25T20:40:59.782Z,28.39
2022-07-25T20:43:27.139Z,28.57
2022-07-25T20:45:54.357Z,28.21
2022-07-25T20:48:21.785Z,28.28
2022-07-25T20:50:48.905Z,28.34
2022-07-25T20:53:16.062Z,28.09
2022-07-25T20:55:43.424Z,28.05
2022-07-25T20:58:10.530Z,27.77
2022-07-25T21:00:37.721Z,27.68
2022-07-25T21:03:05.227Z,27.98
2022-07-25T21:05:37.554Z,27.56
2022-07-25T21:08:05.369Z,27.68
2022-07-25T21:10:32.516Z,27.96
2022-07-25T21:12:59.640Z,27.49
2022-07-25T21:15:27.018Z,27.72
2022-07-25T21:17:54.182Z,27.81
2022-07-25T21:20:21.339Z,27.64
2022-07-25T21:22:48.716Z,26.91
2022-07-25T21:25:15.825Z,26.87
2022-07-25T21:27:42.999Z,27.44
2022-07-25T21:30:10.589Z,26.85
2022-07-25T21:32:39.172Z,27.17
2022-07-25T21:35:06.420Z,27.36
2022-07-25T21:37:33.934Z,27.18
2022-07-25T21:40:01.062Z,26.59
2022-07-25T21:42:28.226Z,26.92
2022-07-25T21:44:55.629Z,26.98
2022-07-25T21:47:22.759Z,26.71
2022-07-25T21:50:08.281Z,26.70
2022-07-25T21:52:35.641Z,27.01
2022-07-25T21:55:02.897Z,27.05
2022-07-25T21:57:29.991Z,27.25
2022-07-25T21:59:57.381Z,27.07
2022-07-25T22:02:24.543Z,27.08
2022-07-25T22:04:51.944Z,27.07
2022-07-25T22:07:19.121Z,26.88
2022-07-25T22:09:46.326Z,26.93
2022-07-25T22:12:14.267Z,26.75
2022-07-25T22:14:41.433Z,26.60
2022-07-25T22:17:09.257Z,26.56
2022-07-25T22:19:36.624Z,26.49
2022-07-25T22:22:05.117Z,26.57
2022-07-25T22:24:32.235Z,26.53
2022-07-25T22:26:59.661Z,26.42
2022-07-25T22:29:26.762Z,26.25
2022-07-25T22:31:53.921Z,25.83
2022-07-25T22:34:21.412Z,26.41
2022-07-25T22:36:48.514Z,26.45
2022-07-25T22:39:16.720Z,26.25
2022-07-25T22:41:44.123Z,26.38
2022-07-25T22:44:11.254Z,26.33
2022-07-25T22:46:38.449Z,26.53
2022-07-25T22:49:06.226Z,26.39
2022-07-25T22:51:33.690Z,26.36
2022-07-25T22:54:00.823Z,26.65
2022-07-25T22:56:28.223Z,25.87
2022-07-25T22:58:55.320Z,26.35
2022-07-25T23:01:22.507Z,26.24
2022-07-25T23:03:50.281Z,26.31
2022-07-25T23:06:18.062Z,26.48
2022-07-25T23:08:45.274Z,26.18
2022-07-25T23:11:12.641Z,26.38
2022-07-25T23:13:39.738Z,26.50
2022-07-25T23:16:10.406Z,26.57
2022-07-25T23:18:38.272Z,26.49
2022-07-25T23:21:05.667Z,26.26
2022-07-25T23:23:32.816Z,25.80
2022-07-25T23:26:00.161Z,25.21
2022-07-25T23:28:27.373Z,25.61
2022-07-25T23:30:54.475Z,25.52
2022-07-25T23:33:25.307Z,25.81
2022-07-25T23:35:53.481Z,25.20
2022-07-25T23:38:20.907Z,25.23
2022-07-25T23:40:48.467Z,25.69
2022-07-25T23:43:18.946Z,25.76
2022-07-25T23:46:02.968Z,25.72
2022-07-25T23:48:30.284Z,25.88
2022-07-25T23:50:57.433Z,26.02
2022-07-25T23:53:24.809Z,25.77
2022-07-25T23:55:51.924Z,25.89
2022-07-25T23:58:19.031Z,25.69
